KCLS/CLS METAR and TAF weather

Enter ICAO airport designator
Station Type Date Time Source
KCLS METAR 2018/10/21 04:15 UTC NOAA

KCLS 210415Z AUTO VRB03KT 7SM CLR 09/09 A3004 RMK AO2


Station Type Date Time Source
KCLS Decoded METAR 2018/10/21 04:15 UTC NOAA

Station name not available
Oct 21, 2018 - 12:15 AM EDT / 2018.10.21 0415 UTC
Wind: Variable at 3 MPH (3 KT):0
Visibility: 7 mile(s):0
Sky conditions: clear
Temperature: 48 F (9 C)
Dew Point: 48 F (9 C)
Relative Humidity: 100%
Pressure (altimeter): 30.04 in. Hg (1017 hPa)
ob: KCLS 210415Z AUTO VRB03KT 7SM CLR 09/09 A3004 RMK AO2
cycle: 4

Station Type Date Time Source
KCLS TAF UTC NOAA

Error!


Example: see airport list